Time;durP1;ratioP1;P1;durP2;ratioP2;P2;SDS_P1;SDS_P2;PMS_P1;PMS_P2;Temp;Humidity;BMP_temperature;BMP_pressure;BME280_temperature;BME280_humidity;BME280_pressure;Samples;Min_cycle;Max_cycle;Signal;HPM_P1;HPM_P2
2024/02/25 00:08:18;;;;;;;85.00;43.00;;;;;;;3.49;88.36;98067.61;433753;1260;98129;-39
2024/02/25 00:18:26;;;;;;;64.80;39.30;;;;;;;3.43;88.27;98058.40;434088;1261;110705;-40
2024/02/25 00:28:33;;;;;;;56.50;31.30;;;;;;;3.46;88.38;98047.47;433937;1258;109363;-40
2024/02/25 00:38:41;;;;;;;62.70;35.70;;;;;;;3.65;88.94;98046.33;433914;1268;99245;-41
2024/02/25 00:48:48;;;;;;;83.50;45.10;;;;;;;3.70;88.62;98052.17;434032;1261;107588;-39
2024/02/25 00:58:56;;;;;;;91.60;47.00;;;;;;;3.61;88.71;98053.16;433814;1261;98859;-41
2024/02/25 01:09:03;;;;;;;95.40;47.00;;;;;;;3.38;88.49;98050.75;434130;1256;112955;-40
2024/02/25 01:19:11;;;;;;;37.70;21.60;;;;;;;3.35;88.92;98044.19;434042;1257;108528;-40
2024/02/25 01:29:18;;;;;;;36.70;21.80;;;;;;;3.82;89.78;98044.05;433897;1260;97989;-39
2024/02/25 01:39:26;;;;;;;30.40;18.60;;;;;;;4.24;89.78;98036.63;434016;1260;108202;-39
2024/02/25 01:49:32;;;;;;;33.50;21.80;;;;;;;4.41;89.79;98034.91;434043;1260;99260;-39
2024/02/25 01:59:40;;;;;;;38.20;22.90;;;;;;;4.50;89.77;98036.35;434028;1259;112766;-39
2024/02/25 02:09:47;;;;;;;53.70;29.50;;;;;;;4.54;90.13;98033.73;434040;1260;108419;-39
2024/02/25 02:30:33;;;;;;;41.00;23.40;;;;;;;4.53;90.16;98036.34;432170;1264;107930;-39
2024/02/25 02:40:41;;;;;;;39.50;23.90;;;;;;;4.57;90.32;98038.95;432173;1264;99275;-41
2024/02/25 02:50:47;;;;;;;41.10;22.90;;;;;;;4.64;90.45;98040.34;432340;1264;110873;-39
2024/02/25 03:00:53;;;;;;;41.60;23.40;;;;;;;4.68;90.56;98038.17;432227;1264;107527;-39
2024/02/25 03:11:00;;;;;;;36.00;22.40;;;;;;;4.72;90.74;98027.89;432172;1260;99336;-40
2024/02/25 03:21:07;;;;;;;49.60;27.40;;;;;;;4.78;90.98;98021.69;432204;1261;108042;-39
2024/02/25 03:31:14;;;;;;;54.60;28.80;;;;;;;4.76;91.09;98016.78;432306;1264;98549;-40
2024/02/25 03:41:20;;;;;;;34.50;21.00;;;;;;;4.77;91.17;98019.19;432235;1264;111328;-40
2024/02/25 03:51:27;;;;;;;32.00;19.70;;;;;;;4.80;91.00;98025.74;432217;1261;108950;-40
2024/02/25 04:01:33;;;;;;;26.30;17.50;;;;;;;4.77;91.21;98019.52;432220;1261;99240;-39
2024/02/25 04:11:40;;;;;;;20.10;13.40;;;;;;;4.81;91.56;98017.29;431855;1264;570065;-39
2024/02/25 04:21:47;;;;;;;22.40;13.70;;;;;;;4.93;91.79;98009.08;432219;1264;99349;-39
2024/02/25 04:31:53;;;;;;;30.30;18.60;;;;;;;4.98;91.88;98010.39;432195;1263;111704;-38
2024/02/25 04:42:00;;;;;;;24.10;16.40;;;;;;;4.89;91.91;98009.46;432207;1263;107912;-40
2024/02/25 04:52:08;;;;;;;25.90;16.40;;;;;;;4.90;91.81;98016.06;432266;1261;99243;-39
2024/02/25 05:02:15;;;;;;;21.90;13.10;;;;;;;4.93;92.22;98010.48;432221;1260;108089;-39
2024/02/25 05:12:22;;;;;;;25.80;14.70;;;;;;;4.92;92.14;98010.81;432195;1263;99436;-40
2024/02/25 05:22:28;;;;;;;19.70;13.00;;;;;;;4.81;91.90;98018.40;432269;1264;111724;-39
2024/02/25 05:42:42;;;;;;;23.60;14.70;;;;;;;4.58;91.92;98018.92;432322;1261;99269;-39
2024/02/25 05:52:48;;;;;;;38.80;21.30;;;;;;;4.48;92.06;98022.00;432283;1263;108214;-39
2024/02/25 06:02:54;;;;;;;25.30;16.50;;;;;;;4.33;92.15;98032.97;432252;1266;101416;-39
2024/02/25 06:13:02;;;;;;;31.30;17.90;;;;;;;4.39;92.27;98030.69;432369;1260;112457;-42
2024/02/25 06:23:09;;;;;;;25.90;16.90;;;;;;;4.53;92.46;98030.86;432287;1264;107906;-39
2024/02/25 06:33:15;;;;;;;26.50;15.80;;;;;;;4.78;92.60;98024.10;432298;1264;99250;-40
2024/02/25 06:43:23;;;;;;;33.60;19.70;;;;;;;5.20;93.23;98029.44;432301;1264;108116;-40
2024/02/25 06:53:30;;;;;;;29.00;15.00;;;;;;;5.78;93.35;98019.73;432233;1260;99269;-41
2024/02/25 07:03:37;;;;;;;28.50;15.00;;;;;;;6.33;92.83;98012.76;432204;1260;111519;-39
2024/02/25 07:23:49;;;;;;;29.40;16.30;;;;;;;7.70;92.22;97998.95;432295;1263;99313;-43
2024/02/25 07:33:55;;;;;;;29.80;17.00;;;;;;;8.46;90.75;97987.75;432264;1264;107909;-39
2024/02/25 07:44:02;;;;;;;27.10;12.70;;;;;;;9.16;88.76;97974.85;432249;1261;99397;-39
2024/02/25 07:54:07;;;;;;;25.40;13.30;;;;;;;10.19;87.14;97971.98;432420;1264;110344;-39
2024/02/25 08:04:14;;;;;;;25.90;13.90;;;;;;;11.09;84.43;97962.00;432232;1264;107090;-40
2024/02/25 08:24:24;;;;;;;19.70;8.70;;;;;;;11.88;77.94;97948.86;432419;1260;106189;-40
2024/02/25 08:44:37;;;;;;;13.00;7.00;;;;;;;11.90;75.14;97926.13;432427;1263;112133;-39
2024/02/25 08:54:45;;;;;;;11.50;6.20;;;;;;;12.23;73.34;97910.80;432346;1263;106901;-41
2024/02/25 09:04:51;;;;;;;13.20;5.60;;;;;;;12.28;71.28;97901.44;432490;1260;99266;-40
2024/02/25 09:14:58;;;;;;;10.20;4.50;;;;;;;12.25;68.22;97898.20;432326;1263;107998;-40
2024/02/25 09:25:03;;;;;;;10.60;3.80;;;;;;;12.36;66.77;97880.17;432256;1261;99274;-39
2024/02/25 09:35:09;;;;;;;7.90;3.70;;;;;;;12.35;64.24;97885.20;432456;1261;110401;-41
2024/02/25 09:55:25;;;;;;;5.00;2.60;;;;;;;12.54;63.18;97864.76;432369;1260;99241;-40
2024/02/25 10:05:30;;;;;;;6.30;3.20;;;;;;;12.77;60.50;97861.46;432281;1264;108161;-43
2024/02/25 10:15:38;;;;;;;4.80;1.90;;;;;;;12.97;59.63;97845.42;432166;1260;98029;-40
2024/02/25 10:25:44;;;;;;;8.10;3.30;;;;;;;13.23;58.83;97844.71;432424;1261;111335;-39
2024/02/25 10:35:51;;;;;;;6.40;2.50;;;;;;;13.37;56.44;97842.33;432408;1260;108381;-41
2024/02/25 10:46:01;;;;;;;3.10;1.90;;;;;;;13.31;56.76;97836.66;432371;1264;99132;-40
2024/02/25 10:56:05;;;;;;;4.30;2.50;;;;;;;13.47;57.55;97828.67;432213;1261;107610;-40
2024/02/25 11:06:11;;;;;;;4.30;2.40;;;;;;;13.55;54.34;97826.44;432390;1260;99132;-39
2024/02/25 11:36:50;;;;;;;5.00;1.90;;;;;;;13.19;55.21;97790.77;432391;1260;99135;-39
2024/02/25 11:46:59;;;;;;;4.70;2.10;;;;;;;13.19;52.57;97772.83;432586;1260;107688;-39
2024/02/25 11:57:04;;;;;;;6.00;2.60;;;;;;;13.25;52.45;97770.55;432339;1260;99180;-40
2024/02/25 12:07:11;;;;;;;4.40;2.40;;;;;;;13.35;53.43;97767.94;432408;1261;111222;-41
2024/02/25 12:17:17;;;;;;;4.70;2.10;;;;;;;13.44;51.87;97764.67;432404;1264;108272;-40
2024/02/25 12:27:23;;;;;;;6.90;3.10;;;;;;;13.46;51.85;97747.98;432462;1261;99240;-40
2024/02/25 12:37:28;;;;;;;7.10;2.30;;;;;;;13.55;51.82;97747.98;432302;1264;107189;-42
2024/02/25 12:47:35;;;;;;;7.10;3.30;;;;;;;13.57;52.07;97744.58;432390;1261;98042;-40
2024/02/25 12:57:41;;;;;;;6.40;3.60;;;;;;;13.60;53.25;97739.83;432325;1261;113960;-40
2024/02/25 13:07:50;;;;;;;5.80;2.90;;;;;;;13.66;52.98;97729.83;432271;1264;108209;-39
2024/02/25 13:38:08;;;;;;;10.40;3.60;;;;;;;13.32;53.47;97711.29;432237;1264;99210;-41
2024/02/25 13:48:14;;;;;;;5.40;3.00;;;;;;;13.18;53.43;97706.57;432461;1260;111205;-41
2024/02/25 13:58:20;;;;;;;11.10;4.40;;;;;;;13.05;53.20;97703.09;432256;1264;107321;-40
2024/02/25 14:18:31;;;;;;;7.60;4.20;;;;;;;12.89;53.19;97702.56;432426;1264;107803;-41
2024/02/25 14:28:36;;;;;;;8.80;4.20;;;;;;;12.79;53.92;97706.39;432299;1262;98108;-41
2024/02/25 14:48:49;;;;;;;8.50;4.40;;;;;;;12.57;54.25;97710.69;432240;1264;107522;-40
2024/02/25 14:58:56;;;;;;;9.70;5.60;;;;;;;12.46;54.70;97709.45;432691;1264;98826;-40
2024/02/25 15:09:02;;;;;;;9.40;5.10;;;;;;;12.30;55.66;97706.99;432341;1264;108094;-40
2024/02/25 15:19:09;;;;;;;15.00;7.90;;;;;;;12.14;56.67;97715.98;432281;1261;99410;-39
2024/02/25 15:29:15;;;;;;;19.30;8.70;;;;;;;11.97;57.64;97724.30;432124;1264;111653;-40
2024/02/25 15:39:22;;;;;;;14.80;7.50;;;;;;;11.75;58.29;97719.60;432261;1264;106884;-41
2024/02/25 15:49:27;;;;;;;18.90;8.90;;;;;;;11.53;58.97;97712.34;432192;1264;99236;-39
2024/02/25 16:09:40;;;;;;;16.90;8.50;;;;;;;11.03;59.98;97712.64;432035;1264;442730;-41
2024/02/25 16:19:50;;;;;;;21.90;7.40;;;;;;;10.77;60.26;97715.20;432236;1264;111693;-40
2024/02/25 16:29:55;;;;;;;;;;;;;;;10.51;60.76;97717.95;432454;1264;107573;-40
2024/02/25 16:40:03;;;;;;;18.10;10.00;;;;;;;10.25;61.26;97721.49;432353;1264;98829;-41
2024/02/25 17:00:20;;;;;;;22.10;11.10;;;;;;;9.76;61.98;97722.27;432355;1261;99234;-40
2024/02/25 17:10:24;;;;;;;22.30;10.70;;;;;;;9.44;62.21;97717.65;432332;1261;111761;-40
2024/02/25 17:20:30;;;;;;;38.00;20.80;;;;;;;9.00;62.53;97716.41;432455;1260;107335;-40
2024/02/25 17:30:34;;;;;;;50.70;24.60;;;;;;;8.57;63.05;97715.27;432425;1264;98851;-41
2024/02/25 17:40:41;;;;;;;60.40;28.80;;;;;;;8.30;63.25;97713.69;432244;1260;111050;-41
2024/02/25 17:50:49;;;;;;;60.40;28.40;;;;;;;8.16;63.67;97713.73;432447;1261;107562;-41
2024/02/25 18:11:02;;;;;;;45.40;21.50;;;;;;;7.92;64.21;97714.61;432351;1261;108349;-41
2024/02/25 18:21:13;;;;;;;47.90;22.60;;;;;;;7.79;64.38;97708.95;432329;1261;99253;-39
2024/02/25 18:31:20;;;;;;;52.60;25.70;;;;;;;7.60;64.86;97710.10;432275;1264;111953;-40
2024/02/25 18:41:26;;;;;;;64.80;33.90;;;;;;;7.38;65.13;97710.54;432126;1261;107900;-39
2024/02/25 18:51:34;;;;;;;52.40;28.50;;;;;;;7.33;65.91;97711.92;432155;1267;99279;-40
2024/02/25 19:01:39;;;;;;;59.90;30.00;;;;;;;7.41;66.28;97710.81;432171;1275;111571;-40
2024/02/25 19:11:44;;;;;;;76.90;41.20;;;;;;;7.19;66.40;97725.77;432220;1264;107989;-40
2024/02/25 19:21:52;;;;;;;81.80;41.00;;;;;;;6.92;66.70;97730.98;432315;1261;99237;-38
2024/02/25 19:42:05;;;;;;;92.50;44.90;;;;;;;6.32;67.43;97725.29;432379;1262;99240;-41
2024/02/25 19:52:12;;;;;;;89.00;46.10;;;;;;;6.14;67.91;97722.19;432323;1264;112394;-39
2024/02/25 20:12:22;;;;;;;73.30;37.90;;;;;;;6.31;68.59;97715.33;432285;1263;99275;-40
2024/02/25 20:22:29;;;;;;;74.80;36.50;;;;;;;6.45;68.98;97713.17;432358;1264;111818;-39
2024/02/25 20:32:35;;;;;;;70.60;34.30;;;;;;;6.45;69.35;97710.11;432312;1264;108100;-41
2024/02/25 20:52:47;;;;;;;71.70;33.30;;;;;;;6.10;69.69;97704.88;432433;1273;111591;-39
2024/02/25 21:02:53;;;;;;;54.50;27.10;;;;;;;5.96;69.86;97698.17;432554;1266;109157;-40
2024/02/25 21:13:00;;;;;;;54.90;28.70;;;;;;;5.91;70.05;97692.66;432238;1267;98042;-39
2024/02/25 21:23:08;;;;;;;72.00;35.20;;;;;;;5.86;70.37;97678.13;432319;1266;111700;-40
2024/02/25 21:33:14;;;;;;;69.30;31.00;;;;;;;5.82;70.79;97666.71;432415;1266;107855;-40
2024/02/25 21:43:21;;;;;;;76.00;32.60;;;;;;;5.78;71.03;97664.80;432292;1264;99085;-40
2024/02/25 21:53:29;;;;;;;80.80;34.20;;;;;;;5.61;71.06;97660.26;432306;1274;107566;-40
2024/02/25 22:03:35;;;;;;;53.50;25.70;;;;;;;5.53;71.25;97659.31;432095;1264;99246;-40
2024/02/25 22:23:48;;;;;;;81.90;37.70;;;;;;;5.45;71.72;97657.63;432335;1264;108089;-40
2024/02/25 22:33:54;;;;;;;83.60;39.60;;;;;;;5.24;71.91;97652.20;432278;1264;99295;-40
2024/02/25 22:44:01;;;;;;;83.30;42.30;;;;;;;5.07;72.20;97650.98;432170;1265;108340;-40
2024/02/25 22:54:05;;;;;;;68.30;33.80;;;;;;;4.94;72.35;97652.59;432268;1263;101553;-39
2024/02/25 23:04:12;;;;;;;59.80;29.60;;;;;;;4.91;72.55;97651.61;432376;1260;110800;-42
2024/02/25 23:24:25;;;;;;;85.00;37.20;;;;;;;4.58;72.94;97648.79;432260;1261;99240;-40
2024/02/25 23:44:38;;;;;;;87.70;41.40;;;;;;;4.14;73.50;97643.06;432383;1260;98008;-42
